Lewistown, Missouri
Current Conditions -  °F | °C
As of 7:35 PM on Wednesday 22 Oct 2014 (Local Time) from KHAE Reporting Station
Clear Clear  
Wind Chill: 54°   Ceiling: Unl
Heat Index: 54°   Visibility: 10mi
Dew Point: 37°   Wind: 3mph
Humidity: 54%   Direction: 150°SSE
Pressure: 30.21"   Gusts: NA
Location:  40.09°N, 91.81°W
Report Text: KHAE 230035Z AUTO 15003KT 10SM CLR 12/03 A3021 RMK AO2
Loading
Personal Weather Stations






























Interactive Weather Map New forecast layout! Learn more

10-Day Weather Forecast

Advertisements
Track Severe Weather on mobile